Portada
METAR-TAF:

METAR-TAF

Aeroports :

Provincetown Municipal Airport

Provincetown, Massachusetts, Estats Units d'Amèrica

latitud: 42-04N, longitud: 070-13W, altitud: 2 m

Observació

L'informe es va fer fa 48 minuts, a les 23:56 UTC
Vent 5 kt del Oest
Temperatura 11°C
Humitat 100%
Pressió 1025 hPa
Visibilitat: 16.1 km
Cel ennuvolat a una alçada de 2100 ft
Cel cobert a una alçada de 2700 ft
pluja

METAR: KPVC 252356Z AUTO 26005KT 10SM -RA BKN021 OVC027 11/11 A3026 RMK AO2 SLP246 6//// T01110106 10117 20094 56005 PNO $

Hora: 19:44 (00:44 UTC)


TAF: manca

Observacions i pronòstics meteorològics de més de 4000 aeroports (METAR i TAF).

Les estacions disponibles són els punts grocs i vermells al mapa.

Posi el ratolí al punt desitjat per veure el nom de l'estació.

Feu clic per veure les observacions i els pronòstics meteorològics.

Per canviar el mapa: feu clic els botons verds amb una creu de color negre per apropar; al botó verd amb un guió per allunyar la imatge; o en les fletxes verdes per a mapes adjacents.


METAR-TAF: